createdAt,value
2016-11-15T00:00:27.749Z,73.02
2016-11-15T00:05:27.692Z,73.31
2016-11-15T00:10:27.637Z,73.02
2016-11-15T00:15:27.585Z,73.31
2016-11-15T00:20:27.532Z,73.31
2016-11-15T00:25:27.478Z,73.69
2016-11-15T00:30:27.420Z,73.5
2016-11-15T00:35:27.372Z,73.88
2016-11-15T00:40:27.310Z,73.6
2016-11-15T00:45:27.258Z,73.79
2016-11-15T00:50:27.206Z,73.85
2016-11-15T00:55:27.154Z,73.79
2016-11-15T01:00:27.127Z,73.85
2016-11-15T01:05:26.737Z,73.94
2016-11-15T01:10:26.985Z,74.13
2016-11-15T01:15:26.627Z,74.04
2016-11-15T01:20:26.875Z,74.13
2016-11-15T01:25:26.822Z,73.94
2016-11-15T01:30:26.764Z,74.13
2016-11-15T01:35:26.712Z,74.04
2016-11-15T01:40:26.351Z,74.04
2016-11-15T01:45:26.601Z,74.13
2016-11-15T01:50:26.543Z,74.33
2016-11-15T01:55:26.187Z,74.13
2016-11-15T02:00:26.437Z,74.13
2016-11-15T02:05:26.074Z,74.23
2016-11-15T02:10:26.325Z,74.33
2016-11-15T02:15:26.265Z,74.23
2016-11-15T02:20:26.210Z,74.04
2016-11-15T02:25:26.159Z,73.94
2016-11-15T02:30:26.100Z,74.13
2016-11-15T02:35:25.739Z,73.94
2016-11-15T02:40:25.988Z,74.13
2016-11-15T02:45:25.928Z,74.23
2016-11-15T02:50:25.872Z,74.19
2016-11-15T02:55:25.816Z,74.33
2016-11-15T03:00:25.761Z,74.19
2016-11-15T03:05:25.705Z,74.19
2016-11-15T03:10:25.351Z,74.19
2016-11-15T03:15:25.593Z,74.29
2016-11-15T03:20:25.529Z,74.39
2016-11-15T03:25:25.172Z,74.48
2016-11-15T03:30:25.416Z,74.68
2016-11-15T03:35:25.360Z,74.48
2016-11-15T03:40:24.998Z,74.68
2016-11-15T03:45:25.244Z,74.58
2016-11-15T03:50:25.190Z,74.87
2016-11-15T03:55:25.135Z,74.68
2016-11-15T04:00:24.774Z,74.87
2016-11-15T04:05:24.720Z,74.68
2016-11-15T04:10:24.962Z,74.68
2016-11-15T04:15:24.913Z,75.25
2016-11-15T04:20:24.849Z,75.15
2016-11-15T04:25:24.801Z,75.06
2016-11-15T04:30:24.732Z,75.06
2016-11-15T04:35:24.675Z,75.25
2016-11-15T04:40:24.616Z,75.06
2016-11-15T04:45:24.559Z,75.02
2016-11-15T04:50:24.503Z,75.35
2016-11-15T04:55:24.458Z,75.4
2016-11-15T05:00:24.085Z,75.21
2016-11-15T05:05:24.331Z,75.73
2016-11-15T05:10:24.267Z,75.35
2016-11-15T05:15:23.910Z,75.15
2016-11-15T05:20:24.155Z,75.35
2016-11-15T05:25:24.095Z,75.45
2016-11-15T05:30:24.043Z,75.4
2016-11-15T05:35:23.983Z,75.4
2016-11-15T05:40:23.924Z,75.21
2016-11-15T05:45:23.871Z,75.25
2016-11-15T05:50:23.805Z,74.77
2016-11-15T05:55:23.749Z,74.58
2016-11-15T06:00:23.687Z,74.39
2016-11-15T06:05:23.321Z,74.1
2016-11-15T06:10:23.571Z,74.13
2016-11-15T06:15:23.508Z,73.94
2016-11-15T06:20:23.455Z,73.75
2016-11-15T06:25:23.084Z,73.6
2016-11-15T06:30:23.329Z,73.5
2016-11-15T06:35:23.277Z,73.88
2016-11-15T06:40:22.914Z,73.11
2016-11-15T06:45:23.167Z,73.02
2016-11-15T06:50:22.802Z,73.21
2016-11-15T06:55:23.054Z,73.31
2016-11-15T07:00:22.701Z,73.54
2016-11-15T07:05:22.636Z,73.83
2016-11-15T07:10:22.580Z,73.44
2016-11-15T07:15:22.821Z,73.73
2016-11-15T07:20:22.777Z,74.02
2016-11-15T07:25:22.717Z,74.02
2016-11-15T07:30:22.667Z,74.02
2016-11-15T07:35:22.610Z,74.6
2016-11-15T07:40:22.685Z,74.4
2016-11-15T07:45:22.505Z,74.3
2016-11-15T07:50:22.453Z,74.5
2016-11-15T07:55:22.401Z,74.6
2016-11-15T08:00:22.343Z,74.79
2016-11-15T08:05:21.985Z,74.6
2016-11-15T08:10:22.239Z,74.69
2016-11-15T08:15:22.191Z,74.6
2016-11-15T08:20:22.131Z,74.98
2016-11-15T08:25:22.081Z,74.79
2016-11-15T08:30:22.029Z,74.79
2016-11-15T08:35:21.982Z,74.69
2016-11-15T08:40:21.918Z,74.98
2016-11-15T08:45:21.870Z,74.98
2016-11-15T08:50:21.512Z,75.37
2016-11-15T08:55:21.456Z,75.56
2016-11-15T09:00:21.712Z,75.27
2016-11-15T09:05:21.353Z,75.27
2016-11-15T09:10:21.617Z,75.37
2016-11-15T09:15:21.553Z,75.46
2016-11-15T09:20:21.192Z,74.98
2016-11-15T09:25:21.446Z,75.46
2016-11-15T09:30:21.390Z,75.46
2016-11-15T09:35:21.335Z,76.14
2016-11-15T09:40:21.284Z,76.04
2016-11-15T09:45:21.227Z,76.71
2016-11-15T09:50:21.180Z,76.52
2016-11-15T09:55:20.820Z,76.52
2016-11-15T10:00:21.072Z,76.61
2016-11-15T10:05:21.052Z,76.9
2016-11-15T10:10:20.664Z,77.58
2016-11-15T10:15:20.910Z,77.09
2016-11-15T10:20:20.559Z,76.9
2016-11-15T10:25:20.804Z,77.09
2016-11-15T10:30:20.752Z,77
2016-11-15T10:35:20.397Z,77.58
2016-11-15T10:40:20.344Z,77.29
2016-11-15T10:45:20.296Z,77
2016-11-15T10:50:20.600Z,77.09
2016-11-15T10:55:20.497Z,77.29
2016-11-15T11:00:20.441Z,77.67
2016-11-15T11:05:20.386Z,77
2016-11-15T11:10:20.332Z,76.9
2016-11-15T11:15:20.279Z,77.09
2016-11-15T11:20:20.224Z,77.09
2016-11-15T11:25:20.171Z,77.09
2016-11-15T11:30:20.131Z,77.09
2016-11-15T11:35:20.066Z,77.19
2016-11-15T11:40:20.007Z,77.48
2016-11-15T11:45:19.958Z,77.29
2016-11-15T11:50:19.903Z,77.09
2016-11-15T11:55:19.545Z,77.48
2016-11-15T12:00:19.793Z,78.25
2016-11-15T12:05:19.743Z,77.58
2016-11-15T12:10:19.693Z,78.15
2016-11-15T12:15:19.333Z,78.25
2016-11-15T12:20:19.587Z,79.69
2016-11-15T12:25:19.535Z,78.73
2016-11-15T12:30:19.483Z,79.69
2016-11-15T12:35:19.431Z,79.69
2016-11-15T12:40:19.380Z,79.69
2016-11-15T12:45:19.328Z,80.36
2016-11-15T12:50:19.267Z,79.5
2016-11-15T12:55:19.219Z,79.79
2016-11-15T13:00:18.855Z,79.88
2016-11-15T13:05:18.804Z,80.55
2016-11-15T13:10:19.047Z,81.04
2016-11-15T13:15:19.003Z,81.04
